Grand Rapids, MI (49512)

7:48 AM EST on March 03, 2015 (GMT -0500)
Kentwood | Change Station
CLOSE
Current Station
Personal Weather Station
Location: Kentwood, MI
Elevation: 709 ft
Nearby Weather Stations
Active Advisory: Winter Weather Advisory

Elev 709 ft 42.90 °N, 85.59 °W | Updated 32 seconds ago

Snow
Snow Freezing Fog
24.4 °F
Feels Like 24 °F
N
3.0
Wind Variable Wind from South
Gusts 3.0 mph

Today
High -- | Low -- °F
--% Chance of Precip.
Yesterday
High -- | Low -- °F
Precip. -- in
7:15 AM 6:33 PM
Waxing Gibbous, 96% visible
Pressure 30.05 in
Visibility 0.5 miles
Clouds
Windchill 24 °F
Dew Point 14 °F
Humidity 67%
Rainfall 0.00 in
Snow Depth Not available.
UV Not available.
Pollen .30 out of 12
Air Quality Not available.
Flu Activity Not available.
SPECI KGRR 031238Z 16009KT 1/2SM R26L/2600V4000FT SN FZFG VV008 M06/M07 A3005 RMK AO2 SNB04 P0003 T10561072

More Conditions Fewer Conditions

Pressure 30.05 in
Visibility 0.5 miles
Clouds
Windchill 24 °F
Dew Point 14 °F
Humidity 67%
Rainfall 0.00 in
Snow Depth Not available.
UV Not available.
Pollen .30 out of 12
Air Quality Not available.
Flu Activity Not available.
SPECI KGRR 031238Z 16009KT 1/2SM R26L/2600V4000FT SN FZFG VV008 M06/M07 A3005 RMK AO2 SNB04 P0003 T10561072

More Conditions Fewer Conditions

10-Day Weather Forecast

Almanac

Astronomy

Mar. 03, 2015 Rise Set
Actual Time
Civil Twilight
Nautical Twilight
Astronomical Twilight
Moon
Length of Visible Light
Length of Day
Tomorrow will be .
, % of the Moon is Illuminated

Today's Extremes

State Highs State Lows

Community

WunderPhotos

Upload Photos

1,802,096 photos uploaded!

WunderBlogs® & News

Nearby

Air Quality

  Air Quality AQ Index Pollutant
Not available.

Snow Depth

Station Depth Elevation

Earthquake Activity

City Distance Mag. Time & Date
Minimum magnitude displayed is 2.5.

Coastal Water Temperatures

Place Temperature

Nearby Weather Stations

Winter Weather Advisory
Statement as of 3:34 AM EST on March 03, 2015

... Winter Weather Advisory remains in effect from 7 am this
morning to 8 PM EST this evening...

Hazardous weather...

* snow will develop toward morning.

* 1 to 3 inches of snow is expected.

* Snow will quickly mix with sleet and freezing rain this morning.

* Ice accumulations around a tenth of an inch possible.

* Freezing drizzle is possible this evening.

Impacts...

* slippery travel is expected due to snow and ice.

* Slower travel speeds anticipated as Road conditions should
   deteriorate.

Precautionary/preparedness actions...

* be prepared for the slippery Road conditions by allowing
   extra time to reach your destination.

* The Michigan Department of Transportation reminds motorists
   to adjust speeds based on the conditions... and to take it
   slow in ice and snow.